Time,TemperatureF,DewpointF,PressureIn,WindDirection,WindDirectionDegrees,WindSpeedMPH,WindSpeedGustMPH,Humidity,HourlyPrecipIn,Conditions,Clouds,dailyrainin,SoftwareType,DateUTC
2013-09-08 00:01:00,61.5,58.8,29.94,NNW,331,0.0,0.0,91,0.00,,---,0.00,VWS V14.01,2013-09-08 04:01:00,
2013-09-08 00:06:00,61.5,59.2,29.94,NNW,331,0.0,0.0,92,0.00,,---,0.00,VWS V14.01,2013-09-08 04:06:00,
2013-09-08 00:11:00,61.7,59.4,29.94,NNW,331,0.0,0.0,92,0.00,,---,0.00,VWS V14.01,2013-09-08 04:11:00,
2013-09-08 00:16:00,61.7,59.4,29.94,NNW,331,0.0,0.0,92,0.00,,---,0.00,VWS V14.01,2013-09-08 04:16:00,
2013-09-08 00:21:00,61.8,59.5,29.94,NNW,331,0.0,0.0,92,0.00,,---,0.00,VWS V14.01,2013-09-08 04:21:00,
2013-09-08 00:26:00,61.8,59.5,29.94,NNW,331,0.0,0.0,92,0.00,,---,0.00,VWS V14.01,2013-09-08 04:26:00,
2013-09-08 00:31:00,62.0,60.0,29.94,NNW,331,0.0,0.0,93,0.00,,---,0.00,VWS V14.01,2013-09-08 04:31:00,
2013-09-08 00:36:00,62.0,60.0,29.94,NNW,331,0.0,0.0,93,0.00,,---,0.00,VWS V14.01,2013-09-08 04:36:00,
2013-09-08 00:41:00,62.1,60.1,29.94,NNW,331,0.0,0.0,93,0.00,,---,0.00,VWS V14.01,2013-09-08 04:41:00,
2013-09-08 00:46:00,62.2,60.2,29.94,NNW,331,0.0,0.0,93,0.00,,---,0.00,VWS V14.01,2013-09-08 04:46:00,
2013-09-08 00:51:00,62.3,60.2,29.94,NNW,331,0.0,0.0,93,0.00,,---,0.00,VWS V14.01,2013-09-08 04:51:00,
2013-09-08 00:56:00,62.3,60.2,29.94,NNW,331,0.0,0.0,93,0.00,,---,0.00,VWS V14.01,2013-09-08 04:56:00,
2013-09-08 01:01:00,62.3,60.2,29.94,NNW,331,0.0,0.0,93,0.00,,---,0.00,VWS V14.01,2013-09-08 05:01:00,
2013-09-08 01:06:00,62.4,60.3,29.93,NNW,331,0.0,0.0,93,0.00,,---,0.00,VWS V14.01,2013-09-08 05:06:00,
2013-09-08 01:11:00,62.4,60.3,29.94,NNW,331,0.0,0.0,93,0.00,,---,0.00,VWS V14.01,2013-09-08 05:11:00,
2013-09-08 01:16:00,62.5,60.5,29.93,NNW,331,0.0,0.0,93,0.00,,---,0.00,VWS V14.01,2013-09-08 05:16:00,
2013-09-08 01:21:00,62.5,60.5,29.93,NNW,331,0.0,0.0,93,0.00,,---,0.00,VWS V14.01,2013-09-08 05:21:00,
2013-09-08 01:26:00,62.5,60.5,29.94,NNW,331,0.0,0.0,93,0.00,,---,0.00,VWS V14.01,2013-09-08 05:26:00,
2013-09-08 01:31:00,62.5,60.5,29.94,NNW,331,0.0,0.0,93,0.00,,---,0.00,VWS V14.01,2013-09-08 05:31:00,
2013-09-08 01:36:00,62.5,60.5,29.94,NNW,331,0.0,0.0,93,0.00,,---,0.00,VWS V14.01,2013-09-08 05:36:00,
2013-09-08 01:41:00,62.5,60.5,29.94,NNW,331,0.0,0.0,93,0.00,,---,0.00,VWS V14.01,2013-09-08 05:41:00,
2013-09-08 01:46:00,62.5,60.5,29.93,NNW,331,0.0,0.0,93,0.00,,---,0.00,VWS V14.01,2013-09-08 05:46:00,
2013-09-08 01:51:00,62.5,60.5,29.93,NNW,331,0.0,0.0,93,0.00,,---,0.00,VWS V14.01,2013-09-08 05:51:00,
2013-09-08 01:56:00,62.5,60.5,29.93,NNW,331,0.0,0.0,93,0.00,,---,0.00,VWS V14.01,2013-09-08 05:56:00,
2013-09-08 02:01:00,62.5,60.5,29.93,NNW,331,0.0,0.0,93,0.00,,---,0.00,VWS V14.01,2013-09-08 06:01:00,
2013-09-08 02:06:00,62.4,60.3,29.93,NNW,331,0.0,0.0,93,0.00,,---,0.00,VWS V14.01,2013-09-08 06:06:00,
2013-09-08 02:11:00,62.4,60.3,29.93,NNW,331,0.0,0.0,93,0.00,,---,0.00,VWS V14.01,2013-09-08 06:11:00,
2013-09-08 02:16:00,62.3,60.2,29.93,NNW,331,0.0,0.0,93,0.00,,---,0.00,VWS V14.01,2013-09-08 06:16:00,
2013-09-08 02:21:00,62.3,60.2,29.93,NNW,331,0.0,0.0,93,0.00,,---,0.00,VWS V14.01,2013-09-08 06:21:00,
2013-09-08 02:26:00,62.3,60.2,29.93,NNW,331,0.0,0.0,93,0.00,,---,0.00,VWS V14.01,2013-09-08 06:26:00,
2013-09-08 02:31:00,62.3,60.2,29.93,NNW,331,0.0,0.0,93,0.00,,---,0.00,VWS V14.01,2013-09-08 06:31:00,
2013-09-08 02:36:00,62.3,60.2,29.93,NNW,331,0.0,0.0,93,0.00,,---,0.00,VWS V14.01,2013-09-08 06:36:00,
2013-09-08 02:41:00,62.3,60.2,29.92,NNW,331,0.0,0.0,93,0.00,,---,0.00,VWS V14.01,2013-09-08 06:41:00,
2013-09-08 02:46:00,62.3,60.2,29.92,NNW,331,0.0,0.0,93,0.00,,---,0.00,VWS V14.01,2013-09-08 06:46:00,
2013-09-08 02:51:00,62.2,60.2,29.92,NNW,331,0.0,0.0,93,0.00,,---,0.00,VWS V14.01,2013-09-08 06:51:00,
2013-09-08 02:56:00,62.2,60.2,29.92,NNW,331,0.0,0.0,93,0.00,,---,0.00,VWS V14.01,2013-09-08 06:56:00,
2013-09-08 03:01:00,62.2,60.2,29.92,NNW,331,0.0,0.0,93,0.00,,---,0.00,VWS V14.01,2013-09-08 07:01:00,
2013-09-08 03:06:00,62.2,60.2,29.92,NNW,331,0.0,0.0,93,0.00,,---,0.00,VWS V14.01,2013-09-08 07:06:00,
2013-09-08 03:11:00,62.2,60.2,29.92,NNW,331,0.0,0.0,93,0.00,,---,0.00,VWS V14.01,2013-09-08 07:11:00,
2013-09-08 03:16:00,62.2,60.2,29.91,NNW,331,0.0,0.0,93,0.00,,---,0.00,VWS V14.01,2013-09-08 07:16:00,
2013-09-08 03:21:00,62.2,60.2,29.91,NNW,331,0.0,0.0,93,0.00,,---,0.00,VWS V14.01,2013-09-08 07:21:00,
2013-09-08 03:26:00,62.2,60.2,29.91,NNW,331,0.0,0.0,93,0.00,,---,0.00,VWS V14.01,2013-09-08 07:26:00,
2013-09-08 03:31:00,62.2,60.2,29.91,NNW,331,0.0,0.0,93,0.00,,---,0.00,VWS V14.01,2013-09-08 07:31:00,
2013-09-08 03:36:00,62.2,60.2,29.91,NNW,331,0.0,0.0,93,0.00,,---,0.00,VWS V14.01,2013-09-08 07:36:00,
2013-09-08 03:41:00,62.2,60.2,29.91,NNW,331,0.0,0.0,93,0.00,,---,0.00,VWS V14.01,2013-09-08 07:41:00,
2013-09-08 03:46:00,62.2,60.2,29.91,NNW,331,0.0,0.0,93,0.00,,---,0.00,VWS V14.01,2013-09-08 07:46:00,
2013-09-08 03:51:00,62.2,60.2,29.91,NNW,331,0.0,0.0,93,0.00,,---,0.00,VWS V14.01,2013-09-08 07:51:00,
2013-09-08 03:56:00,62.1,60.1,29.91,NNW,331,0.0,0.0,93,0.00,,---,0.00,VWS V14.01,2013-09-08 07:56:00,
2013-09-08 04:01:00,62.1,60.1,29.91,NNW,331,0.0,0.0,93,0.00,,---,0.00,VWS V14.01,2013-09-08 08:01:00,
2013-09-08 04:06:00,62.1,60.1,29.91,NNW,331,0.0,0.0,93,0.00,,---,0.00,VWS V14.01,2013-09-08 08:06:00,
2013-09-08 04:11:00,62.1,60.1,29.91,NNW,331,0.0,0.0,93,0.00,,---,0.00,VWS V14.01,2013-09-08 08:11:00,
2013-09-08 04:16:00,62.1,60.1,29.91,NNW,331,0.0,0.0,93,0.00,,---,0.00,VWS V14.01,2013-09-08 08:16:00,
2013-09-08 04:21:00,62.1,60.1,29.91,NNW,331,0.0,0.0,93,0.00,,---,0.00,VWS V14.01,2013-09-08 08:21:00,
2013-09-08 04:26:00,62.1,60.1,29.90,NNW,331,0.0,0.0,93,0.00,,---,0.00,VWS V14.01,2013-09-08 08:26:00,
2013-09-08 04:31:00,62.1,60.1,29.90,NNW,331,0.0,0.0,93,0.00,,---,0.00,VWS V14.01,2013-09-08 08:31:00,
2013-09-08 04:36:00,62.1,60.1,29.90,NNW,331,0.0,0.0,93,0.00,,---,0.00,VWS V14.01,2013-09-08 08:36:00,
2013-09-08 04:41:00,62.0,60.0,29.90,NNW,331,0.0,0.0,93,0.00,,---,0.00,VWS V14.01,2013-09-08 08:41:00,
2013-09-08 04:46:00,62.0,60.0,29.90,NNW,331,0.0,0.0,93,0.00,,---,0.00,VWS V14.01,2013-09-08 08:46:00,
2013-09-08 04:51:00,61.9,59.9,29.90,NNW,331,0.0,0.0,93,0.00,,---,0.00,VWS V14.01,2013-09-08 08:51:00,
2013-09-08 04:56:00,61.8,59.8,29.90,NNW,331,0.0,0.0,93,0.00,,---,0.00,VWS V14.01,2013-09-08 08:56:00,
2013-09-08 05:01:00,61.7,59.7,29.91,NNW,331,0.0,0.0,93,0.00,,---,0.00,VWS V14.01,2013-09-08 09:01:00,
2013-09-08 05:06:00,61.6,59.6,29.90,NNW,331,0.0,0.0,93,0.00,,---,0.00,VWS V14.01,2013-09-08 09:06:00,
2013-09-08 05:11:00,61.5,59.5,29.91,NNW,331,0.0,0.0,93,0.00,,---,0.00,VWS V14.01,2013-09-08 09:11:00,
2013-09-08 05:16:00,61.4,59.4,29.90,NNW,331,0.0,0.0,93,0.00,,---,0.00,VWS V14.01,2013-09-08 09:16:00,
2013-09-08 05:21:00,61.3,59.3,29.90,NNW,331,0.0,0.0,93,0.00,,---,0.00,VWS V14.01,2013-09-08 09:21:00,
2013-09-08 05:26:00,61.2,59.2,29.90,NNW,331,0.0,0.0,93,0.00,,---,0.00,VWS V14.01,2013-09-08 09:26:00,
2013-09-08 05:31:00,61.1,59.1,29.90,NNW,331,0.0,0.0,93,0.00,,---,0.00,VWS V14.01,2013-09-08 09:31:00,
2013-09-08 05:36:00,61.1,59.1,29.90,NNW,331,0.0,0.0,93,0.00,,---,0.00,VWS V14.01,2013-09-08 09:36:00,
2013-09-08 05:41:00,61.1,59.1,29.90,NNW,331,0.0,0.0,93,0.00,,---,0.00,VWS V14.01,2013-09-08 09:41:00,
2013-09-08 05:46:00,61.0,59.0,29.90,NNW,331,0.0,0.0,93,0.00,,---,0.00,VWS V14.01,2013-09-08 09:46:00,
2013-09-08 05:51:00,61.0,59.0,29.90,NNW,331,0.0,0.0,93,0.00,,---,0.00,VWS V14.01,2013-09-08 09:51:00,
2013-09-08 05:56:00,60.9,58.9,29.90,NNW,331,0.0,0.0,93,0.00,,---,0.00,VWS V14.01,2013-09-08 09:56:00,
2013-09-08 06:01:00,60.9,58.9,29.90,NNW,331,0.0,0.0,93,0.00,,---,0.00,VWS V14.01,2013-09-08 10:01:00,
2013-09-08 06:06:00,60.8,58.8,29.91,NNW,331,0.0,0.0,93,0.00,,---,0.00,VWS V14.01,2013-09-08 10:06:00,
2013-09-08 06:11:00,60.7,58.7,29.91,NNW,331,0.0,0.0,93,0.00,,---,0.00,VWS V14.01,2013-09-08 10:11:00,
2013-09-08 06:16:00,60.7,58.7,29.91,NNW,331,0.0,0.0,93,0.00,,---,0.00,VWS V14.01,2013-09-08 10:16:00,
2013-09-08 06:21:00,60.7,58.7,29.91,NNW,331,0.0,0.0,93,0.00,,---,0.00,VWS V14.01,2013-09-08 10:21:00,
2013-09-08 06:26:00,60.6,58.6,29.91,NNW,331,0.0,0.0,93,0.00,,---,0.00,VWS V14.01,2013-09-08 10:26:00,
2013-09-08 06:31:00,60.6,58.6,29.91,NNW,331,0.0,0.0,93,0.00,,---,0.00,VWS V14.01,2013-09-08 10:31:00,
2013-09-08 06:36:00,60.5,58.5,29.91,NNW,331,0.0,0.0,93,0.00,,---,0.00,VWS V14.01,2013-09-08 10:36:00,
2013-09-08 06:41:00,60.4,58.4,29.92,NNW,331,0.0,0.0,93,0.00,,---,0.00,VWS V14.01,2013-09-08 10:41:00,
2013-09-08 06:46:00,60.4,58.4,29.92,NNW,331,0.0,0.0,93,0.00,,---,0.00,VWS V14.01,2013-09-08 10:46:00,
2013-09-08 06:51:00,60.4,58.4,29.92,NNW,331,0.0,0.0,93,0.00,,---,0.00,VWS V14.01,2013-09-08 10:51:00,
2013-09-08 06:56:00,60.4,58.4,29.92,NNW,331,0.0,0.0,93,0.00,,---,0.00,VWS V14.01,2013-09-08 10:56:00,
2013-09-08 07:01:00,60.4,58.4,29.92,NNW,331,0.0,0.0,93,0.00,,---,0.00,VWS V14.01,2013-09-08 11:01:00,
2013-09-08 07:06:00,60.4,58.4,29.92,NNW,331,0.0,0.0,93,0.00,,---,0.00,VWS V14.01,2013-09-08 11:06:00,
2013-09-08 07:11:00,60.4,58.7,29.92,NNW,331,0.0,0.0,94,0.00,,---,0.00,VWS V14.01,2013-09-08 11:11:00,
2013-09-08 07:16:00,60.4,58.7,29.93,NNW,331,0.0,0.0,94,0.00,,---,0.00,VWS V14.01,2013-09-08 11:16:00,
2013-09-08 07:21:00,60.3,58.6,29.93,NNW,331,0.0,0.0,94,0.00,,---,0.00,VWS V14.01,2013-09-08 11:21:00,
2013-09-08 07:26:00,60.3,58.6,29.93,NNW,331,0.0,0.0,94,0.00,,---,0.00,VWS V14.01,2013-09-08 11:26:00,
2013-09-08 07:31:00,60.3,58.6,29.92,NNW,331,0.0,0.0,94,0.00,,---,0.00,VWS V14.01,2013-09-08 11:31:00,
2013-09-08 07:36:00,60.2,58.5,29.92,NNW,331,0.0,0.0,94,0.00,,---,0.00,VWS V14.01,2013-09-08 11:36:00,
2013-09-08 07:41:00,60.2,58.5,29.93,NNW,331,0.0,0.0,94,0.00,,---,0.00,VWS V14.01,2013-09-08 11:41:00,
2013-09-08 07:46:00,60.2,58.5,29.93,NNW,331,0.0,0.0,94,0.00,,---,0.00,VWS V14.01,2013-09-08 11:46:00,
2013-09-08 07:51:00,60.2,58.5,29.93,NNW,331,0.0,0.0,94,0.00,,---,0.00,VWS V14.01,2013-09-08 11:51:00,
2013-09-08 07:56:00,60.2,58.5,29.93,NNW,331,0.0,0.0,94,0.00,,---,0.00,VWS V14.01,2013-09-08 11:56:00,
2013-09-08 08:01:00,60.4,59.0,29.93,NNW,331,0.0,0.0,95,0.00,,---,0.00,VWS V14.01,2013-09-08 12:01:00,
2013-09-08 08:06:00,60.6,59.2,29.93,NNW,331,0.0,0.0,95,0.00,,---,0.00,VWS V14.01,2013-09-08 12:06:00,
2013-09-08 08:11:00,60.7,59.3,29.93,NNW,331,0.0,0.0,95,0.00,,---,0.00,VWS V14.01,2013-09-08 12:11:00,
2013-09-08 08:17:00,60.9,59.5,29.93,NNW,331,0.0,0.0,95,0.00,,---,0.00,VWS V14.01,2013-09-08 12:17:00,
2013-09-08 08:22:00,61.1,59.7,29.93,NNW,331,0.0,0.0,95,0.00,,---,0.00,VWS V14.01,2013-09-08 12:22:00,
2013-09-08 08:27:00,61.4,60.2,29.92,NNW,331,0.0,0.0,96,0.00,,---,0.00,VWS V14.01,2013-09-08 12:27:00,
2013-09-08 08:32:00,61.7,60.5,29.92,NNW,331,0.0,0.0,96,0.00,,---,0.00,VWS V14.01,2013-09-08 12:32:00,
2013-09-08 08:37:00,61.9,60.8,29.92,NNW,331,0.0,0.0,96,0.00,,---,0.00,VWS V14.01,2013-09-08 12:37:00,
2013-09-08 08:42:00,62.1,61.0,29.93,NNW,331,0.0,0.0,96,0.00,,---,0.00,VWS V14.01,2013-09-08 12:42:00,
2013-09-08 08:47:00,62.4,61.2,29.92,NNW,331,0.0,0.0,96,0.00,,---,0.00,VWS V14.01,2013-09-08 12:47:00,
2013-09-08 08:52:00,63.0,62.1,29.92,NNW,331,0.0,0.0,97,0.00,,---,0.00,VWS V14.01,2013-09-08 12:52:00,
2013-09-08 08:57:00,63.4,62.2,29.92,NNW,333,0.0,0.0,96,0.00,,---,0.00,VWS V14.01,2013-09-08 12:57:00,
2013-09-08 09:02:00,63.7,62.5,29.92,NNW,333,0.0,0.0,96,0.00,,---,0.00,VWS V14.01,2013-09-08 13:02:00,
2013-09-08 09:07:00,64.1,62.9,29.93,NNW,333,0.0,0.0,96,0.00,,---,0.00,VWS V14.01,2013-09-08 13:07:00,
2013-09-08 09:12:00,64.4,63.5,29.93,NNW,333,0.0,0.0,97,0.00,,---,0.00,VWS V14.01,2013-09-08 13:12:00,
2013-09-08 09:17:00,64.9,64.0,29.93,NNW,333,0.0,0.0,97,0.00,,---,0.00,VWS V14.01,2013-09-08 13:17:00,
2013-09-08 09:22:00,65.2,64.0,29.93,NNW,333,0.0,0.0,96,0.00,,---,0.00,VWS V14.01,2013-09-08 13:22:00,
2013-09-08 09:27:00,65.6,64.4,29.93,NNW,333,0.0,0.0,96,0.00,,---,0.00,VWS V14.01,2013-09-08 13:27:00,
2013-09-08 09:32:00,66.0,64.8,29.93,NNW,333,0.0,0.0,96,0.00,,---,0.00,VWS V14.01,2013-09-08 13:32:00,
2013-09-08 09:37:00,66.5,65.6,29.93,NNW,333,0.0,0.0,97,0.00,,---,0.00,VWS V14.01,2013-09-08 13:37:00,
2013-09-08 09:42:00,67.2,66.0,29.93,NNW,333,0.0,0.0,96,0.00,,---,0.00,VWS V14.01,2013-09-08 13:42:00,
2013-09-08 09:47:00,67.7,66.5,29.93,NNW,333,0.0,0.0,96,0.00,,---,0.00,VWS V14.01,2013-09-08 13:47:00,
2013-09-08 09:52:00,68.4,67.2,29.93,NE,36,0.0,0.0,96,0.00,,---,0.00,VWS V14.01,2013-09-08 13:52:00,
2013-09-08 09:57:00,69.1,67.9,29.93,NW,315,0.0,0.0,96,0.00,,---,0.00,VWS V14.01,2013-09-08 13:57:00,
2013-09-08 10:02:00,69.7,68.2,29.93,NW,319,0.0,0.0,95,0.00,,---,0.00,VWS V14.01,2013-09-08 14:02:00,
2013-09-08 10:07:00,70.4,68.6,29.93,WNW,294,0.0,0.0,94,0.00,,---,0.00,VWS V14.01,2013-09-08 14:07:00,
2013-09-08 10:12:00,71.0,68.6,29.93,West,276,0.0,0.0,92,0.00,,---,0.00,VWS V14.01,2013-09-08 14:12:00,
2013-09-08 10:17:00,71.6,68.8,29.93,West,276,0.0,0.0,91,0.00,,---,0.00,VWS V14.01,2013-09-08 14:17:00,
2013-09-08 10:22:00,72.3,68.9,29.93,NE,45,0.0,0.0,89,0.00,,---,0.00,VWS V14.01,2013-09-08 14:22:00,
2013-09-08 10:27:00,73.1,69.3,29.93,SW,220,0.0,0.0,88,0.00,,---,0.00,VWS V14.01,2013-09-08 14:27:00,
2013-09-08 10:32:00,73.9,69.1,29.93,West,278,0.0,0.0,85,0.00,,---,0.00,VWS V14.01,2013-09-08 14:32:00,
2013-09-08 10:37:00,74.6,69.1,29.93,West,278,0.0,0.0,83,0.00,,---,0.00,VWS V14.01,2013-09-08 14:37:00,
2013-09-08 10:42:00,75.3,69.1,29.93,WNW,298,0.0,0.0,81,0.00,,---,0.00,VWS V14.01,2013-09-08 14:42:00,
2013-09-08 10:47:00,76.0,69.8,29.93,NNE,24,0.0,0.0,81,0.00,,---,0.00,VWS V14.01,2013-09-08 14:47:00,
2013-09-08 10:52:00,76.7,69.7,29.93,WNW,298,0.0,5.0,79,0.00,,---,0.00,VWS V14.01,2013-09-08 14:52:00,
2013-09-08 10:57:00,77.2,69.4,29.93,West,265,0.0,4.0,77,0.00,,---,0.00,VWS V14.01,2013-09-08 14:57:00,
2013-09-08 11:02:00,77.6,69.4,29.93,ENE,61,0.0,0.0,76,0.00,,---,0.00,VWS V14.01,2013-09-08 15:02:00,
2013-09-08 11:07:00,78.1,69.9,29.93,West,277,0.0,4.0,76,0.00,,---,0.00,VWS V14.01,2013-09-08 15:07:00,
2013-09-08 11:12:00,78.6,70.4,29.93,West,277,0.0,1.0,76,0.00,,---,0.00,VWS V14.01,2013-09-08 15:12:00,
2013-09-08 11:17:00,78.9,69.9,29.93,WSW,257,0.0,1.0,74,0.00,,---,0.00,VWS V14.01,2013-09-08 15:17:00,
2013-09-08 11:22:00,79.1,69.7,29.93,WSW,257,0.0,4.0,73,0.00,,---,0.00,VWS V14.01,2013-09-08 15:22:00,
2013-09-08 11:27:00,79.2,69.8,29.93,WSW,257,0.0,0.0,73,0.00,,---,0.00,VWS V14.01,2013-09-08 15:27:00,
2013-09-08 11:32:00,79.2,69.4,29.93,NNE,24,0.0,0.0,72,0.00,,---,0.00,VWS V14.01,2013-09-08 15:32:00,
2013-09-08 11:37:00,79.1,69.3,29.94,ENE,67,0.0,0.0,72,0.00,,---,0.00,VWS V14.01,2013-09-08 15:37:00,
2013-09-08 11:42:00,78.9,68.7,29.93,East,81,0.0,2.0,71,0.00,,---,0.00,VWS V14.01,2013-09-08 15:42:00,
2013-09-08 11:47:00,78.8,69.0,29.93,West,259,0.0,5.0,72,0.00,,---,0.00,VWS V14.01,2013-09-08 15:47:00,
2013-09-08 11:52:00,78.6,68.8,29.93,NE,44,0.0,2.0,72,0.00,,---,0.00,VWS V14.01,2013-09-08 15:52:00,
2013-09-08 11:57:00,78.5,68.7,29.93,ENE,64,0.0,0.0,72,0.00,,---,0.00,VWS V14.01,2013-09-08 15:57:00,
2013-09-08 12:02:00,78.5,68.7,29.93,ENE,64,0.0,0.0,72,0.00,,---,0.00,VWS V14.01,2013-09-08 16:02:00,
2013-09-08 12:07:00,78.4,69.4,29.93,NNE,27,0.0,0.0,74,0.00,,---,0.00,VWS V14.01,2013-09-08 16:07:00,
2013-09-08 12:12:00,78.3,68.9,29.93,NNE,22,0.0,0.0,73,0.00,,---,0.00,VWS V14.01,2013-09-08 16:12:00,
2013-09-08 12:17:00,78.3,69.3,29.93,East,83,2.0,2.0,74,0.00,,---,0.00,VWS V14.01,2013-09-08 16:17:00,
2013-09-08 12:22:00,78.3,68.9,29.93,NNE,21,0.0,5.0,73,0.00,,---,0.00,VWS V14.01,2013-09-08 16:22:00,
2013-09-08 12:27:00,78.4,69.4,29.93,WNW,300,4.0,4.0,74,0.00,,---,0.00,VWS V14.01,2013-09-08 16:27:00,
2013-09-08 12:32:00,78.4,69.4,29.93,NW,309,0.0,0.0,74,0.00,,---,0.00,VWS V14.01,2013-09-08 16:32:00,
2013-09-08 12:37:00,78.5,69.5,29.93,WNW,284,0.0,2.0,74,0.00,,---,0.00,VWS V14.01,2013-09-08 16:37:00,
2013-09-08 12:42:00,78.7,69.7,29.93,West,279,0.0,3.0,74,0.00,,---,0.00,VWS V14.01,2013-09-08 16:42:00,
2013-09-08 12:47:00,78.9,69.5,29.93,NNW,331,0.0,6.0,73,0.00,,---,0.00,VWS V14.01,2013-09-08 16:47:00,
2013-09-08 12:52:00,79.0,69.2,29.93,West,263,0.0,4.0,72,0.00,,---,0.00,VWS V14.01,2013-09-08 16:52:00,
2013-09-08 12:57:00,79.0,70.0,29.94,West,263,0.0,0.0,74,0.00,,---,0.00,VWS V14.01,2013-09-08 16:57:00,
2013-09-08 13:02:00,79.1,69.7,29.94,West,261,0.0,3.0,73,0.00,,---,0.00,VWS V14.01,2013-09-08 17:02:00,
2013-09-08 13:07:00,79.1,69.7,29.94,West,280,0.0,4.0,73,0.00,,---,0.00,VWS V14.01,2013-09-08 17:07:00,
2013-09-08 13:12:00,79.1,69.7,29.94,WNW,302,1.0,5.0,73,0.00,,---,0.00,VWS V14.01,2013-09-08 17:12:00,
2013-09-08 13:17:00,79.0,69.6,29.94,West,273,0.0,4.0,73,0.00,,---,0.00,VWS V14.01,2013-09-08 17:17:00,
2013-09-08 13:22:00,78.9,69.5,29.94,West,272,0.0,3.0,73,0.00,,---,0.00,VWS V14.01,2013-09-08 17:22:00,
2013-09-08 13:27:00,79.0,70.4,29.94,NE,51,1.0,3.0,75,0.00,,---,0.00,VWS V14.01,2013-09-08 17:27:00,
2013-09-08 13:32:00,78.8,69.4,29.94,NW,325,0.0,2.0,73,0.00,,---,0.00,VWS V14.01,2013-09-08 17:32:00,
2013-09-08 13:37:00,78.7,69.3,29.94,WNW,282,0.0,2.0,73,0.00,,---,0.00,VWS V14.01,2013-09-08 17:37:00,
2013-09-08 13:42:00,78.6,69.6,29.94,WNW,301,0.0,0.0,74,0.00,,---,0.00,VWS V14.01,2013-09-08 17:42:00,
2013-09-08 13:47:00,78.5,69.9,29.94,WNW,301,0.0,0.0,75,0.00,,---,0.00,VWS V14.01,2013-09-08 17:47:00,
2013-09-08 13:53:00,78.3,69.7,29.94,West,280,0.0,0.0,75,0.00,,---,0.00,VWS V14.01,2013-09-08 17:53:00,
2013-09-08 13:58:00,78.2,69.6,29.94,North,5,0.0,3.0,75,0.00,,---,0.00,VWS V14.01,2013-09-08 17:58:00,
2013-09-08 14:03:00,78.2,70.0,29.94,North,9,0.0,0.0,76,0.00,,---,0.00,VWS V14.01,2013-09-08 18:03:00,
2013-09-08 14:08:00,78.7,70.5,29.94,North,9,0.0,0.0,76,0.00,,---,0.00,VWS V14.01,2013-09-08 18:08:00,
2013-09-08 14:13:00,79.0,70.4,29.94,West,275,0.0,3.0,75,0.00,,---,0.00,VWS V14.01,2013-09-08 18:13:00,
2013-09-08 14:18:00,79.2,69.8,29.94,West,275,0.0,0.0,73,0.00,,---,0.00,VWS V14.01,2013-09-08 18:18:00,
2013-09-08 14:23:00,79.2,69.8,29.94,WSW,240,0.0,4.0,73,0.00,,---,0.00,VWS V14.01,2013-09-08 18:23:00,
2013-09-08 14:28:00,79.2,70.2,29.94,West,261,0.0,3.0,74,0.00,,---,0.00,VWS V14.01,2013-09-08 18:28:00,
2013-09-08 14:33:00,79.0,70.0,29.94,WNW,302,2.0,3.0,74,0.00,,---,0.00,VWS V14.01,2013-09-08 18:33:00,
2013-09-08 14:38:00,79.1,70.9,29.94,WNW,300,0.0,0.0,76,0.00,,---,0.00,VWS V14.01,2013-09-08 18:38:00,
2013-09-08 14:43:00,79.6,72.1,29.94,East,97,2.0,2.0,78,0.00,,---,0.00,VWS V14.01,2013-09-08 18:43:00,
2013-09-08 14:48:00,80.2,70.8,29.94,NE,40,0.0,4.0,73,0.00,,---,0.00,VWS V14.01,2013-09-08 18:48:00,
2013-09-08 14:53:00,80.5,70.2,29.94,ENE,66,0.0,0.0,71,0.00,,---,0.00,VWS V14.01,2013-09-08 18:53:00,
2013-09-08 14:58:00,80.6,70.8,29.94,NNE,24,0.0,4.0,72,0.00,,---,0.00,VWS V14.01,2013-09-08 18:58:00,
2013-09-08 15:03:00,80.7,70.4,29.94,NW,313,3.0,4.0,71,0.00,,---,0.00,VWS V14.01,2013-09-08 19:03:00,
2013-09-08 15:08:00,80.6,69.9,29.94,West,274,1.0,4.0,70,0.00,,---,0.00,VWS V14.01,2013-09-08 19:08:00,
2013-09-08 15:13:00,80.5,70.2,29.94,West,274,0.0,0.0,71,0.00,,---,0.00,VWS V14.01,2013-09-08 19:13:00,
2013-09-08 15:18:00,80.4,71.0,29.94,West,274,0.0,0.0,73,0.00,,---,0.00,VWS V14.01,2013-09-08 19:18:00,
2013-09-08 15:23:00,80.2,70.4,29.93,West,274,0.0,1.0,72,0.00,,---,0.00,VWS V14.01,2013-09-08 19:23:00,
2013-09-08 15:28:00,80.3,70.5,29.93,NW,317,6.0,6.0,72,0.00,,---,0.00,VWS V14.01,2013-09-08 19:28:00,
2013-09-08 15:33:00,80.6,70.3,29.93,NW,309,0.0,5.0,71,0.00,,---,0.00,VWS V14.01,2013-09-08 19:33:00,
2013-09-08 15:38:00,81.0,71.1,29.93,NW,305,0.0,0.0,72,0.00,,---,0.00,VWS V14.01,2013-09-08 19:38:00,
2013-09-08 15:43:00,81.4,71.1,29.93,NNW,338,0.0,0.0,71,0.00,,---,0.00,VWS V14.01,2013-09-08 19:43:00,
2013-09-08 15:48:00,81.9,71.6,29.93,NE,36,0.0,3.0,71,0.00,,---,0.00,VWS V14.01,2013-09-08 19:48:00,
2013-09-08 15:53:00,82.0,70.4,29.93,NW,308,0.0,3.0,68,0.00,,---,0.00,VWS V14.01,2013-09-08 19:53:00,
2013-09-08 15:58:00,82.2,70.6,29.93,West,271,2.0,3.0,68,0.00,,---,0.00,VWS V14.01,2013-09-08 19:58:00,
2013-09-08 16:03:00,82.3,69.8,29.93,NNE,23,0.0,4.0,66,0.00,,---,0.00,VWS V14.01,2013-09-08 20:03:00,
2013-09-08 16:08:00,82.4,69.9,29.93,WNW,295,1.0,4.0,66,0.00,,---,0.00,VWS V14.01,2013-09-08 20:08:00,
2013-09-08 16:13:00,82.3,68.9,29.93,NW,314,2.0,4.0,64,0.00,,---,0.00,VWS V14.01,2013-09-08 20:13:00,
2013-09-08 16:18:00,82.1,69.6,29.93,WNW,294,0.0,0.0,66,0.00,,---,0.00,VWS V14.01,2013-09-08 20:18:00,
2013-09-08 16:23:00,81.9,70.7,29.93,North,355,0.0,2.0,69,0.00,,---,0.00,VWS V14.01,2013-09-08 20:23:00,
2013-09-08 16:28:00,81.9,70.7,29.93,WNW,295,2.0,4.0,69,0.00,,---,0.00,VWS V14.01,2013-09-08 20:28:00,
2013-09-08 16:33:00,81.8,69.3,29.93,WSW,256,1.0,10.0,66,0.00,,---,0.00,VWS V14.01,2013-09-08 20:33:00,
2013-09-08 16:38:00,81.5,69.9,29.93,West,269,0.0,3.0,68,0.00,,---,0.00,VWS V14.01,2013-09-08 20:38:00,
2013-09-08 16:43:00,81.4,70.7,29.94,West,269,0.0,0.0,70,0.00,,---,0.00,VWS V14.01,2013-09-08 20:43:00,
2013-09-08 16:48:00,81.2,69.2,29.93,West,271,3.0,5.0,67,0.00,,---,0.00,VWS V14.01,2013-09-08 20:48:00,
2013-09-08 16:53:00,81.2,69.6,29.93,SW,229,0.0,5.0,68,0.00,,---,0.00,VWS V14.01,2013-09-08 20:53:00,
2013-09-08 16:58:00,81.5,69.9,29.94,NNE,32,1.0,6.0,68,0.00,,---,0.00,VWS V14.01,2013-09-08 20:58:00,
2013-09-08 17:03:00,81.4,69.0,29.94,WSW,252,1.0,6.0,66,0.00,,---,0.00,VWS V14.01,2013-09-08 21:03:00,
2013-09-08 17:08:00,81.1,69.1,29.93,NE,34,0.0,4.0,67,0.00,,---,0.00,VWS V14.01,2013-09-08 21:08:00,
2013-09-08 17:13:00,80.8,69.3,29.93,NE,54,0.0,0.0,68,0.00,,---,0.00,VWS V14.01,2013-09-08 21:13:00,
2013-09-08 17:18:00,80.6,69.1,29.94,NE,54,0.0,0.0,68,0.00,,---,0.00,VWS V14.01,2013-09-08 21:18:00,
2013-09-08 17:23:00,80.2,68.7,29.93,West,271,0.0,4.0,68,0.00,,---,0.00,VWS V14.01,2013-09-08 21:23:00,
2013-09-08 17:28:00,79.9,68.8,29.93,WNW,287,0.0,4.0,69,0.00,,---,0.00,VWS V14.01,2013-09-08 21:28:00,
2013-09-08 17:33:00,79.6,68.5,29.93,NW,316,1.0,5.0,69,0.00,,---,0.00,VWS V14.01,2013-09-08 21:33:00,
2013-09-08 17:38:00,79.5,68.0,29.93,West,261,0.0,10.0,68,0.00,,---,0.00,VWS V14.01,2013-09-08 21:38:00,
2013-09-08 17:43:00,79.4,67.9,29.93,NE,36,0.0,5.0,68,0.00,,---,0.00,VWS V14.01,2013-09-08 21:43:00,
2013-09-08 17:48:00,79.5,68.0,29.93,ENE,57,0.0,3.0,68,0.00,,---,0.00,VWS V14.01,2013-09-08 21:48:00,
2013-09-08 17:53:00,79.4,67.9,29.93,NE,43,2.0,3.0,68,0.00,,---,0.00,VWS V14.01,2013-09-08 21:53:00,
2013-09-08 17:58:00,79.3,67.4,29.94,West,279,0.0,5.0,67,0.00,,---,0.00,VWS V14.01,2013-09-08 21:58:00,
2013-09-08 18:03:00,79.1,67.6,29.94,WNW,282,0.0,1.0,68,0.00,,---,0.00,VWS V14.01,2013-09-08 22:03:00,
2013-09-08 18:08:00,78.8,67.4,29.94,WNW,282,0.0,1.0,68,0.00,,---,0.00,VWS V14.01,2013-09-08 22:08:00,
2013-09-08 18:13:00,78.4,66.6,29.94,NNW,331,0.0,3.0,67,0.00,,---,0.00,VWS V14.01,2013-09-08 22:13:00,
2013-09-08 18:18:00,78.1,66.7,29.94,WSW,254,2.0,3.0,68,0.00,,---,0.00,VWS V14.01,2013-09-08 22:18:00,
2013-09-08 18:23:00,77.8,66.8,29.94,NW,307,0.0,6.0,69,0.00,,---,0.00,VWS V14.01,2013-09-08 22:23:00,
2013-09-08 18:28:00,77.5,66.9,29.95,WNW,288,0.0,5.0,70,0.00,,---,0.00,VWS V14.01,2013-09-08 22:28:00,
2013-09-08 18:33:00,77.1,66.6,29.95,WNW,288,0.0,0.0,70,0.00,,---,0.00,VWS V14.01,2013-09-08 22:33:00,
2013-09-08 18:38:00,76.8,66.7,29.95,WNW,288,0.0,0.0,71,0.00,,---,0.00,VWS V14.01,2013-09-08 22:38:00,
2013-09-08 18:43:00,76.4,66.3,29.95,WNW,288,0.0,0.0,71,0.00,,---,0.00,VWS V14.01,2013-09-08 22:43:00,
2013-09-08 18:48:00,76.0,66.3,29.95,WNW,288,0.0,0.0,72,0.00,,---,0.00,VWS V14.01,2013-09-08 22:48:00,
2013-09-08 18:53:00,75.6,65.9,29.95,WNW,288,0.0,0.0,72,0.00,,---,0.00,VWS V14.01,2013-09-08 22:53:00,
2013-09-08 18:58:00,75.2,66.3,29.95,WNW,288,0.0,1.0,74,0.00,,---,0.00,VWS V14.01,2013-09-08 22:58:00,
2013-09-08 19:03:00,74.8,66.3,29.95,WNW,288,0.0,0.0,75,0.00,,---,0.00,VWS V14.01,2013-09-08 23:03:00,
2013-09-08 19:08:00,74.3,65.9,29.95,WNW,288,0.0,0.0,75,0.00,,---,0.00,VWS V14.01,2013-09-08 23:08:00,
2013-09-08 19:13:00,73.9,65.9,29.96,WNW,288,0.0,0.0,76,0.00,,---,0.00,VWS V14.01,2013-09-08 23:13:00,
2013-09-08 19:18:00,73.4,65.8,29.96,WNW,288,0.0,0.0,77,0.00,,---,0.00,VWS V14.01,2013-09-08 23:18:00,
2013-09-08 19:23:00,72.9,65.7,29.96,WNW,288,0.0,0.0,78,0.00,,---,0.00,VWS V14.01,2013-09-08 23:23:00,
2013-09-08 19:28:00,72.5,65.6,29.96,WNW,288,0.0,0.0,79,0.00,,---,0.00,VWS V14.01,2013-09-08 23:28:00,
2013-09-08 19:33:00,72.1,65.6,29.96,WNW,288,0.0,0.0,80,0.00,,---,0.00,VWS V14.01,2013-09-08 23:33:00,
2013-09-08 19:38:00,71.7,65.2,29.96,WNW,288,0.0,0.0,80,0.00,,---,0.00,VWS V14.01,2013-09-08 23:38:00,
2013-09-08 19:43:00,71.2,65.1,29.96,WNW,288,0.0,0.0,81,0.00,,---,0.00,VWS V14.01,2013-09-08 23:43:00,
2013-09-08 19:48:00,70.8,64.7,29.96,WNW,288,0.0,0.0,81,0.00,,---,0.00,VWS V14.01,2013-09-08 23:48:00,
2013-09-08 19:53:00,70.4,64.7,29.97,WNW,288,0.0,0.0,82,0.00,,---,0.00,VWS V14.01,2013-09-08 23:53:00,
2013-09-08 19:58:00,70.0,64.3,29.97,WNW,288,0.0,0.0,82,0.00,,---,0.00,VWS V14.01,2013-09-08 23:58:00,
2013-09-08 20:03:00,69.6,63.9,29.97,WNW,288,0.0,0.0,82,0.00,,---,0.00,VWS V14.01,2013-09-09 00:03:00,
2013-09-08 20:08:00,69.2,63.8,29.97,WNW,288,0.0,0.0,83,0.00,,---,0.00,VWS V14.01,2013-09-09 00:08:00,
2013-09-08 20:13:00,68.8,63.4,29.97,WNW,288,0.0,0.0,83,0.00,,---,0.00,VWS V14.01,2013-09-09 00:13:00,
2013-09-08 20:18:00,68.4,63.4,29.97,WNW,288,0.0,0.0,84,0.00,,---,0.00,VWS V14.01,2013-09-09 00:18:00,
2013-09-08 20:23:00,68.0,63.0,29.97,WNW,288,0.0,0.0,84,0.00,,---,0.00,VWS V14.01,2013-09-09 00:23:00,
2013-09-08 20:28:00,67.7,63.0,29.98,WNW,288,0.0,0.0,85,0.00,,---,0.00,VWS V14.01,2013-09-09 00:28:00,
2013-09-08 20:33:00,67.4,62.7,29.98,WNW,288,0.0,0.0,85,0.00,,---,0.00,VWS V14.01,2013-09-09 00:33:00,
2013-09-08 20:38:00,67.1,62.8,29.98,WNW,288,0.0,0.0,86,0.00,,---,0.00,VWS V14.01,2013-09-09 00:38:00,
2013-09-08 20:43:00,66.8,62.5,29.98,WNW,288,0.0,0.0,86,0.00,,---,0.00,VWS V14.01,2013-09-09 00:43:00,
2013-09-08 20:48:00,66.5,62.2,29.98,WNW,288,0.0,0.0,86,0.00,,---,0.00,VWS V14.01,2013-09-09 00:48:00,
2013-09-08 20:53:00,66.2,62.2,29.98,WNW,288,0.0,0.0,87,0.00,,---,0.00,VWS V14.01,2013-09-09 00:53:00,
2013-09-08 20:58:00,65.9,61.9,29.99,WNW,288,0.0,0.0,87,0.00,,---,0.00,VWS V14.01,2013-09-09 00:58:00,
2013-09-08 21:03:00,65.7,61.7,29.99,WNW,288,0.0,0.0,87,0.00,,---,0.00,VWS V14.01,2013-09-09 01:03:00,
2013-09-08 21:08:00,65.4,61.4,29.99,WNW,288,0.0,0.0,87,0.00,,---,0.00,VWS V14.01,2013-09-09 01:08:00,
2013-09-08 21:13:00,65.2,61.6,29.99,WNW,288,0.0,0.0,88,0.00,,---,0.00,VWS V14.01,2013-09-09 01:13:00,
2013-09-08 21:18:00,64.9,61.3,30.00,WNW,288,0.0,0.0,88,0.00,,---,0.00,VWS V14.01,2013-09-09 01:18:00,
2013-09-08 21:23:00,64.7,61.1,30.00,WNW,288,0.0,0.0,88,0.00,,---,0.00,VWS V14.01,2013-09-09 01:23:00,
2013-09-08 21:28:00,64.5,60.9,30.00,WNW,288,0.0,0.0,88,0.00,,---,0.00,VWS V14.01,2013-09-09 01:28:00,
2013-09-08 21:33:00,64.2,60.6,30.00,WNW,288,0.0,0.0,88,0.00,,---,0.00,VWS V14.01,2013-09-09 01:33:00,
2013-09-08 21:38:00,64.0,60.7,30.00,WNW,288,0.0,0.0,89,0.00,,---,0.00,VWS V14.01,2013-09-09 01:38:00,
2013-09-08 21:43:00,63.8,60.5,30.00,WNW,288,0.0,0.0,89,0.00,,---,0.00,VWS V14.01,2013-09-09 01:43:00,
2013-09-08 21:48:00,63.6,60.3,30.00,WNW,288,0.0,0.0,89,0.00,,---,0.00,VWS V14.01,2013-09-09 01:48:00,
2013-09-08 21:53:00,63.4,60.1,30.01,WNW,288,0.0,0.0,89,0.00,,---,0.00,VWS V14.01,2013-09-09 01:53:00,
2013-09-08 21:58:00,63.2,60.2,30.00,WNW,288,0.0,0.0,90,0.00,,---,0.00,VWS V14.01,2013-09-09 01:58:00,
2013-09-08 22:03:00,63.1,60.1,30.00,WNW,288,0.0,0.0,90,0.00,,---,0.00,VWS V14.01,2013-09-09 02:03:00,
2013-09-08 22:08:00,62.9,59.9,30.01,WNW,288,0.0,0.0,90,0.00,,---,0.00,VWS V14.01,2013-09-09 02:08:00,
2013-09-08 22:13:00,62.7,59.7,30.01,WNW,288,0.0,0.0,90,0.00,,---,0.00,VWS V14.01,2013-09-09 02:13:00,
2013-09-08 22:18:00,62.6,59.6,30.01,WNW,288,0.0,0.0,90,0.00,,---,0.00,VWS V14.01,2013-09-09 02:18:00,
2013-09-08 22:23:00,62.5,59.5,30.01,WNW,288,0.0,0.0,90,0.00,,---,0.00,VWS V14.01,2013-09-09 02:23:00,
2013-09-08 22:28:00,62.3,59.3,30.01,WNW,288,0.0,0.0,90,0.00,,---,0.00,VWS V14.01,2013-09-09 02:28:00,
2013-09-08 22:33:00,62.2,59.5,30.02,WNW,288,0.0,0.0,91,0.00,,---,0.00,VWS V14.01,2013-09-09 02:33:00,
2013-09-08 22:38:00,62.1,59.5,30.02,WNW,288,0.0,0.0,91,0.00,,---,0.00,VWS V14.01,2013-09-09 02:38:00,
2013-09-08 22:43:00,61.9,59.2,30.02,WNW,288,0.0,0.0,91,0.00,,---,0.00,VWS V14.01,2013-09-09 02:43:00,
2013-09-08 22:48:00,61.8,59.2,30.02,WNW,288,0.0,0.0,91,0.00,,---,0.00,VWS V14.01,2013-09-09 02:48:00,
2013-09-08 22:53:00,61.7,59.0,30.02,WNW,288,0.0,0.0,91,0.00,,---,0.00,VWS V14.01,2013-09-09 02:53:00,
2013-09-08 22:58:00,61.6,59.0,30.02,WNW,288,0.0,0.0,91,0.00,,---,0.00,VWS V14.01,2013-09-09 02:58:00,
2013-09-08 23:03:00,61.4,58.8,30.02,WNW,288,0.0,0.0,91,0.00,,---,0.00,VWS V14.01,2013-09-09 03:03:00,
2013-09-08 23:08:00,61.3,58.7,30.02,WNW,288,0.0,0.0,91,0.00,,---,0.00,VWS V14.01,2013-09-09 03:08:00,
2013-09-08 23:13:00,61.2,58.6,30.02,WNW,288,0.0,0.0,91,0.00,,---,0.00,VWS V14.01,2013-09-09 03:13:00,
2013-09-08 23:18:00,61.1,58.8,30.02,WNW,288,0.0,0.0,92,0.00,,---,0.00,VWS V14.01,2013-09-09 03:18:00,
2013-09-08 23:23:00,61.0,58.7,30.02,WNW,288,0.0,0.0,92,0.00,,---,0.00,VWS V14.01,2013-09-09 03:23:00,
2013-09-08 23:28:00,60.8,58.5,30.02,WNW,288,0.0,0.0,92,0.00,,---,0.00,VWS V14.01,2013-09-09 03:28:00,
2013-09-08 23:33:00,60.7,58.4,30.03,WNW,288,0.0,0.0,92,0.00,,---,0.00,VWS V14.01,2013-09-09 03:33:00,
2013-09-08 23:38:00,60.6,58.3,30.03,WNW,288,0.0,0.0,92,0.00,,---,0.00,VWS V14.01,2013-09-09 03:38:00,
2013-09-08 23:43:00,60.5,58.2,30.03,WNW,288,0.0,0.0,92,0.00,,---,0.00,VWS V14.01,2013-09-09 03:43:00,
2013-09-08 23:48:00,60.4,58.1,30.03,WNW,288,0.0,0.0,92,0.00,,---,0.00,VWS V14.01,2013-09-09 03:48:00,
2013-09-08 23:53:00,60.3,58.0,30.03,WNW,288,0.0,0.0,92,0.00,,---,0.00,VWS V14.01,2013-09-09 03:53:00,
2013-09-08 23:58:00,60.3,58.0,30.03,WNW,288,0.0,0.0,92,0.00,,---,0.00,VWS V14.01,2013-09-09 03:58:00,